Time;durP1;ratioP1;P1;durP2;ratioP2;P2;SDS_P1;SDS_P2;PMS_P1;PMS_P2;Temp;Humidity;BMP_temperature;BMP_pressure;BME280_temperature;BME280_humidity;BME280_pressure;Samples;Min_cycle;Max_cycle;Signal;HPM_P1;HPM_P2
2021/08/10 00:00:07;;;;;;;0.15;0.15;;;17.40;99.90;;;;;;4936690;29;20476;-73
2021/08/10 00:02:33;;;;;;;0.20;0.20;;;17.30;99.90;;;;;;4935415;29;20031;-73
2021/08/10 00:04:59;;;;;;;0.10;0.10;;;17.20;99.90;;;;;;4935552;29;20365;-73
2021/08/10 00:07:24;;;;;;;0.10;0.10;;;17.10;99.90;;;;;;4935180;29;20459;-73
2021/08/10 00:09:50;;;;;;;0.10;0.10;;;17.00;99.90;;;;;;4935170;29;20120;-73
2021/08/10 00:12:16;;;;;;;0.10;0.10;;;16.80;99.90;;;;;;4935233;29;20023;-73
2021/08/10 00:14:42;;;;;;;0.10;0.10;;;16.70;99.90;;;;;;4935242;29;20094;-73
2021/08/10 00:17:08;;;;;;;0.10;0.10;;;16.80;99.90;;;;;;4935109;29;20535;-73
2021/08/10 00:19:34;;;;;;;0.10;0.10;;;16.90;99.90;;;;;;4934928;29;20368;-74
2021/08/10 00:21:59;;;;;;;0.10;0.10;;;17.10;99.90;;;;;;4935140;29;20033;-73
2021/08/10 00:24:25;;;;;;;0.10;0.10;;;17.10;99.90;;;;;;4936323;29;20024;-73
2021/08/10 00:26:51;;;;;;;0.55;0.55;;;17.10;99.90;;;;;;4935008;29;20074;-74
2021/08/10 00:29:17;;;;;;;0.10;0.10;;;17.10;99.90;;;;;;4934899;29;20123;-74
2021/08/10 00:31:42;;;;;;;0.10;0.10;;;17.10;99.90;;;;;;4936163;29;20031;-73
2021/08/10 00:34:08;;;;;;;0.10;0.10;;;17.00;99.90;;;;;;4934906;29;20090;-73
2021/08/10 00:36:37;;;;;;;0.20;0.20;;;16.90;99.90;;;;;;4934756;29;20035;-73
2021/08/10 00:39:05;;;;;;;0.10;0.10;;;16.80;99.90;;;;;;4934745;29;20032;-73
2021/08/10 00:41:31;;;;;;;0.10;0.10;;;16.80;99.90;;;;;;4935977;29;20028;-73
2021/08/10 00:43:57;;;;;;;0.17;0.17;;;16.70;99.90;;;;;;4934998;29;20389;-73
2021/08/10 00:46:22;;;;;;;0.55;0.55;;;16.70;99.90;;;;;;4934215;29;20115;-74
2021/08/10 00:48:48;;;;;;;0.20;0.20;;;16.70;99.90;;;;;;4934386;29;20035;-74
2021/08/10 00:51:14;;;;;;;0.47;0.47;;;16.70;99.90;;;;;;4934613;29;20111;-73
2021/08/10 00:53:40;;;;;;;0.10;0.10;;;16.70;99.90;;;;;;4934360;29;20290;-73
2021/08/10 00:56:07;;;;;;;0.10;0.10;;;16.80;99.90;;;;;;4934431;29;20027;-73
2021/08/10 00:58:34;;;;;;;0.00;0.00;;;16.80;99.90;;;;;;4918536;29;20492;-73
2021/08/10 01:01:01;;;;;;;0.30;0.30;;;16.80;99.90;;;;;;4935585;29;20028;-73
2021/08/10 01:03:26;;;;;;;0.10;0.10;;;16.80;99.90;;;;;;4918519;29;20116;-74
2021/08/10 01:05:53;;;;;;;0.10;0.10;;;16.80;99.90;;;;;;4918423;29;20035;-74
2021/08/10 01:08:58;;;;;;;0.17;0.17;;;17.00;99.90;;;;;;4935255;29;20039;-73
2021/08/10 01:11:27;;;;;;;0.10;0.10;;;16.90;99.90;;;;;;4935572;29;20034;-73
2021/08/10 01:14:00;;;;;;;0.10;0.10;;;16.90;99.90;;;;;;4934177;29;20059;-73
2021/08/10 01:16:45;;;;;;;0.10;0.10;;;16.80;99.90;;;;;;4934144;29;20031;-74
2021/08/10 01:19:44;;;;;;;0.20;0.20;;;16.90;99.90;;;;;;4934251;29;20181;-73
2021/08/10 01:22:15;;;;;;;0.10;0.10;;;17.00;99.90;;;;;;4935322;29;20526;-73
2021/08/10 01:24:53;;;;;;;0.20;0.20;;;17.00;99.90;;;;;;4934060;29;20325;-74
2021/08/10 01:27:34;;;;;;;0.10;0.10;;;17.10;99.90;;;;;;4935440;29;20024;-74
2021/08/10 01:30:20;;;;;;;0.10;0.10;;;17.10;99.90;;;;;;4935214;29;20031;-73
2021/08/10 01:32:48;;;;;;;0.10;0.10;;;17.00;99.90;;;;;;4935288;29;20023;-74
2021/08/10 01:35:19;;;;;;;0.20;0.20;;;16.90;99.90;;;;;;4933822;29;20086;-73
2021/08/10 01:37:50;;;;;;;0.38;0.38;;;16.90;99.90;;;;;;4934917;29;20031;-73
2021/08/10 01:40:17;;;;;;;0.20;0.20;;;16.70;99.90;;;;;;4933907;29;20501;-73
2021/08/10 01:42:43;;;;;;;1.20;0.85;;;16.60;99.90;;;;;;4917973;29;20031;-74
2021/08/10 01:45:10;;;;;;;0.10;0.10;;;16.50;99.90;;;;;;4934982;29;20023;-73
2021/08/10 01:47:38;;;;;;;0.17;0.17;;;16.50;99.90;;;;;;4934751;29;20060;-73
2021/08/10 01:50:07;;;;;;;0.20;0.20;;;16.50;99.90;;;;;;4934893;29;20024;-73
2021/08/10 01:52:34;;;;;;;0.30;0.30;;;16.40;99.90;;;;;;4934781;29;20023;-73
2021/08/10 01:55:00;;;;;;;0.20;0.20;;;16.50;99.90;;;;;;4934802;29;20032;-73
2021/08/10 01:57:27;;;;;;;0.20;0.20;;;16.30;99.90;;;;;;4932756;29;20119;-73
2021/08/10 01:59:55;;;;;;;0.20;0.20;;;16.20;99.90;;;;;;4933219;29;20491;-73
2021/08/10 02:02:22;;;;;;;0.15;0.15;;;16.20;99.90;;;;;;4934707;29;20028;-73
2021/08/10 02:04:50;;;;;;;0.40;0.40;;;16.10;99.90;;;;;;4934627;29;20130;-73
2021/08/10 02:07:18;;;;;;;0.10;0.10;;;16.00;99.90;;;;;;4934611;29;20032;-73
2021/08/10 02:09:45;;;;;;;0.20;0.20;;;15.90;99.90;;;;;;4934721;29;20023;-73
2021/08/10 02:12:12;;;;;;;0.20;0.20;;;16.00;99.90;;;;;;4934679;29;20030;-73
2021/08/10 02:14:38;;;;;;;1.05;0.82;;;15.90;99.90;;;;;;4934543;29;20514;-73
2021/08/10 02:17:07;;;;;;;1.00;0.70;;;15.90;99.90;;;;;;4933369;29;20089;-73
2021/08/10 02:19:34;;;;;;;0.10;0.10;;;16.00;99.90;;;;;;4933208;29;20028;-73
2021/08/10 02:22:09;;;;;;;8.57;1.23;;;16.20;99.90;;;;;;4933222;29;20042;-73
2021/08/10 02:24:43;;;;;;;0.30;0.30;;;16.10;99.90;;;;;;4934545;29;20369;-73
2021/08/10 02:27:16;;;;;;;0.20;0.20;;;16.20;99.90;;;;;;4934411;29;20051;-73
2021/08/10 02:29:44;;;;;;;0.10;0.10;;;16.30;99.90;;;;;;4934274;29;20123;-73
2021/08/10 02:32:13;;;;;;;0.10;0.10;;;16.30;99.90;;;;;;4933240;29;20024;-74
2021/08/10 02:34:41;;;;;;;0.10;0.10;;;16.40;99.90;;;;;;4947672;23;20071;-74
2021/08/10 02:37:08;;;;;;;0.10;0.10;;;16.40;99.90;;;;;;4933028;29;20031;-75
2021/08/10 02:39:37;;;;;;;0.43;0.43;;;16.40;99.90;;;;;;4934295;29;20099;-76
2021/08/10 02:42:04;;;;;;;0.10;0.10;;;16.30;99.90;;;;;;4933036;29;20176;-76
2021/08/10 02:44:31;;;;;;;0.10;0.10;;;16.40;99.90;;;;;;4933022;29;20027;-75
2021/08/10 02:46:57;;;;;;;0.17;0.17;;;16.40;99.90;;;;;;4932984;29;20028;-75
2021/08/10 02:49:23;;;;;;;0.10;0.10;;;16.50;99.90;;;;;;4933999;29;20038;-75
2021/08/10 02:51:48;;;;;;;0.35;0.32;;;16.50;99.90;;;;;;4934231;29;20024;-74
2021/08/10 02:54:14;;;;;;;1.90;0.38;;;16.40;99.90;;;;;;4932845;29;20028;-76
2021/08/10 02:57:00;;;;;;;0.15;0.15;;;16.10;99.90;;;;;;4932979;29;20028;-75
2021/08/10 02:59:40;;;;;;;0.20;0.20;;;15.90;99.90;;;;;;4933969;29;20122;-75
2021/08/10 03:02:16;;;;;;;0.10;0.10;;;15.90;99.90;;;;;;4934215;29;20019;-76
2021/08/10 03:04:57;;;;;;;0.10;0.10;;;15.90;99.90;;;;;;4916936;29;20106;-75
2021/08/10 03:07:26;;;;;;;0.30;0.30;;;15.80;99.90;;;;;;4932765;29;20067;-75
2021/08/10 03:09:55;;;;;;;0.10;0.10;;;15.80;99.90;;;;;;4934529;29;20032;-76
2021/08/10 03:12:24;;;;;;;0.10;0.10;;;15.80;99.90;;;;;;4937612;29;20044;-76
2021/08/10 03:14:52;;;;;;;0.10;0.10;;;15.90;99.90;;;;;;4937410;29;20027;-76
2021/08/10 03:17:21;;;;;;;0.10;0.10;;;16.00;99.90;;;;;;4937383;29;20024;-76
2021/08/10 03:19:48;;;;;;;0.10;0.10;;;16.20;99.90;;;;;;4937197;29;20122;-75
2021/08/10 03:22:15;;;;;;;0.10;0.10;;;16.20;99.90;;;;;;4936211;29;20579;-76
2021/08/10 03:24:43;;;;;;;0.10;0.10;;;16.40;99.90;;;;;;4936177;29;20022;-75
2021/08/10 03:27:10;;;;;;;0.10;0.10;;;16.50;99.90;;;;;;4936116;29;20388;-76
2021/08/10 03:29:36;;;;;;;0.20;0.20;;;16.50;99.90;;;;;;4937108;29;20436;-76
2021/08/10 03:32:04;;;;;;;0.10;0.10;;;16.60;99.90;;;;;;4935955;29;20035;-76
2021/08/10 03:34:31;;;;;;;0.10;0.10;;;16.60;99.90;;;;;;4935743;29;20031;-75
2021/08/10 03:36:59;;;;;;;0.20;0.20;;;16.70;99.90;;;;;;4937106;29;20024;-75
2021/08/10 03:39:26;;;;;;;0.10;0.10;;;16.80;99.90;;;;;;4919822;29;20036;-75
2021/08/10 03:41:53;;;;;;;0.10;0.10;;;16.90;99.90;;;;;;4937254;29;20103;-75
2021/08/10 03:44:19;;;;;;;0.20;0.20;;;16.70;99.90;;;;;;4936973;29;20032;-76
2021/08/10 03:46:45;;;;;;;0.20;0.20;;;16.70;99.90;;;;;;4936993;29;20500;-76
2021/08/10 03:49:15;;;;;;;0.10;0.10;;;16.60;99.90;;;;;;4935290;29;20114;-75
2021/08/10 03:51:41;;;;;;;0.68;0.68;;;16.50;99.90;;;;;;4936879;29;20020;-76
2021/08/10 03:54:07;;;;;;;0.20;0.20;;;16.50;99.90;;;;;;4919615;29;20488;-75
2021/08/10 03:56:33;;;;;;;0.10;0.10;;;16.50;99.90;;;;;;4919734;29;20051;-76
2021/08/10 03:59:00;;;;;;;0.10;0.10;;;16.60;99.90;;;;;;4935215;29;20027;-76
2021/08/10 04:01:27;;;;;;;0.10;0.10;;;16.60;99.90;;;;;;4936668;29;20024;-75
2021/08/10 04:03:56;;;;;;;0.10;0.10;;;16.50;99.90;;;;;;4936433;29;20035;-76
2021/08/10 04:06:23;;;;;;;0.10;0.10;;;16.60;99.90;;;;;;4936620;29;20391;-76
2021/08/10 04:08:50;;;;;;;0.10;0.10;;;16.70;99.90;;;;;;4934965;29;20369;-76
2021/08/10 04:11:18;;;;;;;0.10;0.10;;;16.60;99.90;;;;;;4936478;29;20028;-76
2021/08/10 04:13:46;;;;;;;3.08;1.85;;;16.50;99.90;;;;;;4934986;29;20027;-75
2021/08/10 04:16:15;;;;;;;0.20;0.20;;;16.40;99.90;;;;;;4936432;29;20024;-76
2021/08/10 04:18:42;;;;;;;0.10;0.10;;;16.40;99.90;;;;;;4936270;29;20499;-72
2021/08/10 04:21:08;;;;;;;0.28;0.28;;;16.50;99.90;;;;;;4935615;29;20079;-76
2021/08/10 04:23:34;;;;;;;0.10;0.10;;;16.50;99.90;;;;;;4935061;29;20028;-75
2021/08/10 04:26:00;;;;;;;0.10;0.10;;;16.50;99.90;;;;;;4934990;29;20036;-75
2021/08/10 04:28:26;;;;;;;0.10;0.10;;;16.50;99.90;;;;;;4934570;29;20171;-75
2021/08/10 04:30:51;;;;;;;0.03;0.03;;;16.50;99.90;;;;;;4934857;29;20079;-75
2021/08/10 04:33:17;;;;;;;0.10;0.10;;;16.40;99.90;;;;;;4936355;29;20479;-76
2021/08/10 04:35:43;;;;;;;0.20;0.20;;;16.40;99.90;;;;;;4935896;29;20110;-75
2021/08/10 04:38:10;;;;;;;0.10;0.10;;;16.30;99.90;;;;;;4936349;29;20383;-75
2021/08/10 04:40:35;;;;;;;0.10;0.10;;;16.30;99.90;;;;;;4935959;29;20082;-76
2021/08/10 04:43:02;;;;;;;0.10;0.10;;;16.50;99.90;;;;;;4934558;29;20035;-75
2021/08/10 04:45:28;;;;;;;0.10;0.10;;;16.60;99.90;;;;;;4935702;29;20107;-75
2021/08/10 04:47:54;;;;;;;0.10;0.10;;;16.70;99.90;;;;;;4918518;29;20508;-75
2021/08/10 04:50:20;;;;;;;0.10;0.10;;;16.60;99.90;;;;;;4934499;29;20079;-75
2021/08/10 04:52:46;;;;;;;0.10;0.10;;;16.60;99.90;;;;;;4935938;29;20147;-75
2021/08/10 04:55:12;;;;;;;0.10;0.10;;;16.70;99.90;;;;;;4935605;29;20048;-75
2021/08/10 04:57:38;;;;;;;0.10;0.10;;;16.80;99.90;;;;;;4935574;29;20043;-75
2021/08/10 05:00:06;;;;;;;0.30;0.30;;;16.80;99.90;;;;;;4935487;29;20115;-75
2021/08/10 05:02:32;;;;;;;0.10;0.10;;;16.70;99.90;;;;;;4934321;29;20070;-75
2021/08/10 05:04:57;;;;;;;0.10;0.10;;;16.60;99.90;;;;;;4935523;29;20059;-76
2021/08/10 05:07:23;;;;;;;0.10;0.10;;;16.60;99.90;;;;;;4934258;29;20036;-77
2021/08/10 05:09:49;;;;;;;0.10;0.10;;;16.60;99.90;;;;;;4949415;29;20019;-76
2021/08/10 05:12:15;;;;;;;0.10;0.10;;;16.70;99.90;;;;;;4953125;29;20438;-76
2021/08/10 05:14:40;;;;;;;0.10;0.10;;;16.70;99.90;;;;;;4953177;29;20058;-75
2021/08/10 05:17:06;;;;;;;0.20;0.20;;;16.80;99.90;;;;;;4954413;29;20340;-75
2021/08/10 05:19:32;;;;;;;0.32;0.30;;;16.90;99.90;;;;;;4952960;29;20031;-75
2021/08/10 05:21:58;;;;;;;0.10;0.10;;;16.90;99.90;;;;;;4952915;29;20066;-75
2021/08/10 05:24:24;;;;;;;0.65;0.35;;;16.80;99.90;;;;;;4939318;29;20115;-75
2021/08/10 05:26:49;;;;;;;0.20;0.20;;;16.90;99.90;;;;;;4935149;29;20034;-75
2021/08/10 05:29:15;;;;;;;0.35;0.35;;;16.80;99.90;;;;;;4934555;29;20540;-77
2021/08/10 05:31:42;;;;;;;0.10;0.10;;;16.80;99.90;;;;;;4935788;29;20194;-75
2021/08/10 05:34:08;;;;;;;0.00;0.00;;;16.90;99.90;;;;;;4934809;29;20051;-75
2021/08/10 05:36:33;;;;;;;0.10;0.10;;;17.00;99.90;;;;;;4917508;29;20055;-75
2021/08/10 05:38:59;;;;;;;0.30;0.30;;;16.90;99.90;;;;;;4933377;29;20548;-75
2021/08/10 05:41:25;;;;;;;0.10;0.10;;;17.00;99.90;;;;;;4933454;29;20023;-76
2021/08/10 05:43:51;;;;;;;0.55;0.55;;;17.00;99.90;;;;;;4923089;29;20083;-76
2021/08/10 05:46:17;;;;;;;0.10;0.10;;;17.20;99.90;;;;;;4943219;29;20502;-76
2021/08/10 05:48:43;;;;;;;0.10;0.10;;;17.30;99.90;;;;;;4937787;29;20038;-75
2021/08/10 05:51:08;;;;;;;0.10;0.10;;;17.30;99.90;;;;;;4941407;29;20116;-75
2021/08/10 05:53:35;;;;;;;0.10;0.10;;;17.40;99.90;;;;;;4936556;29;20028;-76
2021/08/10 05:56:01;;;;;;;0.10;0.10;;;17.60;99.90;;;;;;4941291;29;20023;-76
2021/08/10 05:58:27;;;;;;;0.10;0.10;;;17.80;99.90;;;;;;4920976;29;20031;-76
2021/08/10 06:00:53;;;;;;;0.00;0.00;;;17.90;99.90;;;;;;4935208;29;20063;-75
2021/08/10 06:03:20;;;;;;;0.05;0.05;;;18.00;99.90;;;;;;4940477;29;20588;-76
2021/08/10 06:05:46;;;;;;;0.10;0.10;;;18.20;99.90;;;;;;4936698;29;20030;-76
2021/08/10 06:08:11;;;;;;;0.05;0.05;;;18.40;99.90;;;;;;4941676;29;20422;-75
2021/08/10 06:10:38;;;;;;;0.32;0.22;;;18.40;99.90;;;;;;4939758;29;20020;-76
2021/08/10 06:13:04;;;;;;;0.47;0.25;;;18.50;99.90;;;;;;4941986;29;20027;-76
2021/08/10 06:15:30;;;;;;;0.10;0.10;;;18.40;99.90;;;;;;4951949;29;20468;-76
2021/08/10 06:17:55;;;;;;;0.38;0.38;;;18.40;99.90;;;;;;4938877;29;20086;-76
2021/08/10 06:20:22;;;;;;;0.10;0.10;;;18.50;99.90;;;;;;4935722;29;20442;-76
2021/08/10 06:22:48;;;;;;;0.70;0.70;;;18.60;99.90;;;;;;4944851;29;20480;-76
2021/08/10 06:25:15;;;;;;;0.10;0.10;;;18.70;99.90;;;;;;4936525;29;20229;-76
2021/08/10 06:27:41;;;;;;;0.10;0.10;;;18.80;99.90;;;;;;4912651;29;20519;-76
2021/08/10 06:30:09;;;;;;;0.10;0.10;;;18.90;99.90;;;;;;4936669;29;20055;-73
2021/08/10 06:32:35;;;;;;;0.20;0.20;;;19.00;99.90;;;;;;4937714;29;20087;-76
2021/08/10 06:35:01;;;;;;;0.10;0.10;;;19.10;99.90;;;;;;4932850;29;20028;-75
2021/08/10 06:37:26;;;;;;;0.10;0.10;;;19.10;99.90;;;;;;4934619;29;20031;-74
2021/08/10 06:39:52;;;;;;;0.10;0.10;;;19.20;99.90;;;;;;4947512;29;20508;-74
2021/08/10 06:42:21;;;;;;;0.10;0.10;;;19.20;99.90;;;;;;4938599;29;20023;-76
2021/08/10 06:44:47;;;;;;;0.10;0.10;;;19.40;99.90;;;;;;4930465;29;20423;-74
2021/08/10 06:47:14;;;;;;;0.17;0.17;;;19.60;99.90;;;;;;4940617;29;20556;-75
2021/08/10 06:49:40;;;;;;;0.10;0.10;;;19.60;99.90;;;;;;4939869;29;20027;-74
2021/08/10 06:52:07;;;;;;;0.00;0.00;;;19.70;99.90;;;;;;4942532;29;20105;-76
2021/08/10 06:54:33;;;;;;;0.00;0.00;;;19.70;99.90;;;;;;4942505;29;20020;-75
2021/08/10 06:57:06;;;;;;;0.28;0.28;;;19.80;99.90;;;;;;4936758;29;20476;-77
2021/08/10 06:59:35;;;;;;;0.10;0.10;;;19.90;99.90;;;;;;4920211;29;20114;-75
2021/08/10 07:02:02;;;;;;;0.10;0.10;;;19.90;99.90;;;;;;4941478;29;20059;-77
2021/08/10 07:04:28;;;;;;;0.05;0.05;;;19.90;99.90;;;;;;4943670;29;20034;-77
2021/08/10 07:06:54;;;;;;;0.13;0.13;;;20.00;99.90;;;;;;4942574;29;20512;-78
2021/08/10 07:09:22;;;;;;;0.13;0.13;;;20.00;99.90;;;;;;4945335;29;20059;-77
2021/08/10 07:11:48;;;;;;;0.10;0.10;;;20.20;99.90;;;;;;4948299;29;20024;-78
2021/08/10 07:14:14;;;;;;;0.10;0.10;;;20.10;99.90;;;;;;4950090;29;20414;-78
2021/08/10 07:16:41;;;;;;;0.57;0.40;;;20.30;99.90;;;;;;4934358;29;20147;-76
2021/08/10 07:19:08;;;;;;;2.55;1.65;;;20.40;99.90;;;;;;4948329;29;20027;-78
2021/08/10 07:21:33;;;;;;;0.28;0.28;;;20.40;99.90;;;;;;4946449;29;20090;-78
2021/08/10 07:23:59;;;;;;;0.52;0.52;;;20.50;99.90;;;;;;4941351;29;20023;-79
2021/08/10 07:26:25;;;;;;;0.00;0.00;;;20.60;99.90;;;;;;4931203;29;20035;-77
2021/08/10 07:28:51;;;;;;;0.10;0.10;;;20.60;99.90;;;;;;4934795;29;20479;-77
2021/08/10 07:31:17;;;;;;;0.03;0.03;;;20.80;99.90;;;;;;4947549;29;20035;-77
2021/08/10 07:33:46;;;;;;;0.43;0.40;;;20.80;99.90;;;;;;4949223;29;20033;-78
2021/08/10 07:36:12;;;;;;;2.22;0.63;;;21.00;99.90;;;;;;4925614;29;20118;-75
2021/08/10 07:38:38;;;;;;;0.35;0.32;;;21.10;97.30;;;;;;4941157;29;20100;-78
2021/08/10 07:41:04;;;;;;;3.10;0.40;;;21.10;98.20;;;;;;4943541;29;20050;-78
2021/08/10 07:43:30;;;;;;;1.30;0.45;;;21.10;98.60;;;;;;4941812;29;20082;-78
2021/08/10 07:45:56;;;;;;;0.10;0.10;;;21.20;99.10;;;;;;4944045;29;20055;-77
2021/08/10 07:48:22;;;;;;;0.13;0.13;;;21.20;98.50;;;;;;4944365;29;20054;-78
2021/08/10 07:50:48;;;;;;;0.00;0.00;;;21.50;98.50;;;;;;4936472;29;20029;-76
2021/08/10 07:53:15;;;;;;;0.10;0.10;;;21.80;96.90;;;;;;4918588;29;20038;-77
2021/08/10 07:55:41;;;;;;;0.28;0.28;;;21.90;95.80;;;;;;4947178;29;20097;-80
2021/08/10 07:58:07;;;;;;;0.15;0.15;;;22.00;95.00;;;;;;4948965;29;20051;-78
2021/08/10 08:00:34;;;;;;;0.08;0.08;;;22.00;95.00;;;;;;4930749;29;20023;-77
2021/08/10 08:03:00;;;;;;;0.03;0.03;;;22.20;94.10;;;;;;4948323;29;20039;-78
2021/08/10 08:05:26;;;;;;;0.00;0.00;;;22.50;92.20;;;;;;4947709;29;20027;-78
2021/08/10 08:07:51;;;;;;;1.48;0.32;;;22.60;90.70;;;;;;4926629;29;20027;-77
2021/08/10 08:10:17;;;;;;;0.00;0.00;;;22.80;90.30;;;;;;4949011;29;20023;-77
2021/08/10 08:12:43;;;;;;;2.72;1.10;;;23.00;91.00;;;;;;4946025;29;20023;-79
2021/08/10 08:15:09;;;;;;;1.40;0.63;;;23.10;89.10;;;;;;4944018;29;20086;-79
2021/08/10 08:17:35;;;;;;;1.13;1.05;;;23.10;85.50;;;;;;4947894;29;20027;-78
2021/08/10 08:20:00;;;;;;;0.03;0.03;;;23.30;84.40;;;;;;4947619;29;20038;-76
2021/08/10 08:22:26;;;;;;;0.10;0.10;;;23.30;85.80;;;;;;4947440;29;20027;-78
2021/08/10 08:24:52;;;;;;;0.03;0.03;;;23.60;84.60;;;;;;4946319;29;20028;-78
2021/08/10 08:27:18;;;;;;;1.75;0.38;;;23.80;83.20;;;;;;4949965;29;20019;-78
2021/08/10 08:29:43;;;;;;;0.20;0.20;;;23.80;81.80;;;;;;4948850;29;20028;-77
2021/08/10 08:32:09;;;;;;;0.03;0.03;;;23.90;78.00;;;;;;4928280;29;20028;-79
2021/08/10 08:37:04;;;;;;;0.25;0.20;;;24.50;77.40;;;;;;4910415;29;20062;-76
2021/08/10 08:39:30;;;;;;;0.22;0.20;;;24.60;75.90;;;;;;4915795;29;20103;-74
2021/08/10 08:42:00;;;;;;;1.50;1.08;;;24.80;72.90;;;;;;4893566;29;20112;-74
2021/08/10 08:44:34;;;;;;;0.00;0.00;;;24.70;69.50;;;;;;4911228;29;20029;-74
2021/08/10 08:47:04;;;;;;;0.10;0.10;;;24.70;70.80;;;;;;4900106;29;20500;-75
2021/08/10 08:49:31;;;;;;;0.00;0.00;;;25.00;72.30;;;;;;4900306;29;20475;-74
2021/08/10 08:52:00;;;;;;;0.65;0.63;;;25.20;71.40;;;;;;4888537;29;20124;-74
2021/08/10 08:54:26;;;;;;;0.10;0.10;;;25.20;69.20;;;;;;4897299;29;20059;-74
2021/08/10 08:56:52;;;;;;;0.00;0.00;;;25.10;69.20;;;;;;4905709;29;20027;-74
2021/08/10 08:59:18;;;;;;;1.02;1.02;;;25.30;70.80;;;;;;4901338;29;20396;-74
2021/08/10 09:01:44;;;;;;;0.00;0.00;;;25.10;70.60;;;;;;4905958;29;20032;-74
2021/08/10 09:04:10;;;;;;;0.38;0.28;;;25.60;72.20;;;;;;4905562;29;20048;-74
2021/08/10 09:06:35;;;;;;;0.00;0.00;;;25.80;70.00;;;;;;4907158;29;20028;-74
2021/08/10 09:09:30;;;;;;;0.03;0.03;;;26.20;69.60;;;;;;4900782;29;20503;-75
2021/08/10 09:12:07;;;;;;;0.35;0.35;;;26.50;67.10;;;;;;4879498;29;20025;-74
2021/08/10 09:14:48;;;;;;;0.20;0.20;;;26.60;64.50;;;;;;4903673;29;20080;-74
2021/08/10 09:17:17;;;;;;;0.00;0.00;;;26.60;64.10;;;;;;4905030;29;20072;-74
2021/08/10 09:19:53;;;;;;;0.00;0.00;;;26.60;64.20;;;;;;4896808;29;20028;-75
2021/08/10 09:22:25;;;;;;;0.00;0.00;;;26.90;64.30;;;;;;4911166;29;20051;-75
2021/08/10 09:25:00;;;;;;;0.10;0.10;;;27.10;64.10;;;;;;4900121;29;20039;-75
2021/08/10 09:27:31;;;;;;;4.00;1.30;;;27.30;64.30;;;;;;4903520;29;20025;-75
2021/08/10 09:29:58;;;;;;;1.65;1.15;;;27.30;62.20;;;;;;4913120;29;20226;-75
2021/08/10 09:32:24;;;;;;;0.15;0.15;;;27.30;63.40;;;;;;4905124;29;20540;-74
2021/08/10 09:35:05;;;;;;;0.00;0.00;;;27.00;64.10;;;;;;4899935;29;20100;-74
2021/08/10 09:37:31;;;;;;;0.55;0.55;;;27.50;62.00;;;;;;4903492;29;20029;-75
2021/08/10 09:39:57;;;;;;;0.30;0.30;;;27.80;59.30;;;;;;4899542;29;20373;-74
2021/08/10 09:42:25;;;;;;;7.30;1.90;;;27.90;58.90;;;;;;4908869;29;20024;-75
2021/08/10 09:44:57;;;;;;;0.13;0.13;;;27.70;59.70;;;;;;4904535;29;20442;-74
2021/08/10 09:47:49;;;;;;;0.00;0.00;;;27.50;59.60;;;;;;4907767;29;20032;-75
2021/08/10 09:50:24;;;;;;;0.10;0.10;;;28.20;59.40;;;;;;4883952;29;20401;-75
2021/08/10 09:52:50;;;;;;;0.10;0.10;;;28.30;55.00;;;;;;4903913;29;20016;-75
2021/08/10 09:55:17;;;;;;;0.20;0.20;;;28.60;55.00;;;;;;4906879;29;20107;-75
2021/08/10 09:58:02;;;;;;;0.35;0.35;;;28.70;53.90;;;;;;4907234;29;20055;-75
2021/08/10 10:00:42;;;;;;;0.00;0.00;;;28.70;53.20;;;;;;4904814;29;20036;-75
2021/08/10 10:03:15;;;;;;;0.15;0.03;;;29.10;55.20;;;;;;4901944;29;20489;-75
2021/08/10 10:05:41;;;;;;;0.20;0.20;;;29.00;51.60;;;;;;4895627;29;20025;-74
2021/08/10 10:08:15;;;;;;;0.00;0.00;;;29.40;52.70;;;;;;4895008;29;20052;-74
2021/08/10 10:10:42;;;;;;;0.00;0.00;;;29.40;52.30;;;;;;4900139;29;20095;-74
2021/08/10 10:13:11;;;;;;;0.00;0.00;;;29.50;51.60;;;;;;4904263;29;20092;-74
2021/08/10 10:15:38;;;;;;;0.10;0.10;;;30.00;49.90;;;;;;4910449;29;20381;-74
2021/08/10 10:18:09;;;;;;;2.40;0.90;;;29.70;47.40;;;;;;4881988;29;20028;-74
2021/08/10 10:20:36;;;;;;;;;;;29.30;49.40;;;;;;4898096;29;20400;-74
2021/08/10 10:23:04;;;;;;;0.10;0.10;;;29.50;51.10;;;;;;4906116;29;19918;-74
2021/08/10 10:25:31;;;;;;;0.35;0.10;;;29.00;48.70;;;;;;4905925;29;20039;-74
2021/08/10 10:27:59;;;;;;;0.05;0.05;;;29.30;49.20;;;;;;4912449;29;20036;-73
2021/08/10 10:30:26;;;;;;;0.00;0.00;;;29.50;47.90;;;;;;4912621;29;20047;-74
2021/08/10 10:32:52;;;;;;;0.55;0.55;;;29.80;48.60;;;;;;4910733;29;20024;-74
2021/08/10 10:35:18;;;;;;;0.98;0.98;;;30.00;49.00;;;;;;4914261;29;20048;-74
2021/08/10 10:37:50;;;;;;;0.00;0.00;;;30.30;49.40;;;;;;4907790;29;20016;-74
2021/08/10 10:40:17;;;;;;;;;;;30.30;48.40;;;;;;4917271;29;20027;-74
2021/08/10 10:42:46;;;;;;;2.92;0.30;;;30.40;50.20;;;;;;4916480;29;19908;-74
2021/08/10 10:45:32;;;;;;;0.35;0.28;;;30.40;49.40;;;;;;4897995;29;20558;-74
2021/08/10 10:47:58;;;;;;;0.00;0.00;;;30.60;48.50;;;;;;4901362;29;20377;-74
2021/08/10 10:50:24;;;;;;;0.13;0.13;;;30.70;49.20;;;;;;4897899;29;20028;-74
2021/08/10 10:53:01;;;;;;;2.28;0.75;;;30.60;47.90;;;;;;4914863;29;20036;-74
2021/08/10 10:55:38;;;;;;;0.10;0.10;;;30.70;48.80;;;;;;4899152;29;20032;-74
2021/08/10 10:58:31;;;;;;;0.20;0.20;;;31.10;48.90;;;;;;4901253;29;20104;-74
2021/08/10 11:01:17;;;;;;;0.00;0.00;;;31.00;47.60;;;;;;4896477;29;20024;-74
2021/08/10 11:04:02;;;;;;;0.05;0.05;;;31.10;48.10;;;;;;4907539;29;20029;-74
2021/08/10 11:06:32;;;;;;;1.75;1.55;;;31.00;48.30;;;;;;4911475;29;20040;-74
2021/08/10 11:08:59;;;;;;;1.17;0.85;;;31.20;48.60;;;;;;4910844;29;20035;-74
2021/08/10 11:11:50;;;;;;;0.52;0.52;;;31.00;48.20;;;;;;4898217;29;20025;-74
2021/08/10 11:14:37;;;;;;;0.00;0.00;;;31.10;47.20;;;;;;4908102;29;20107;-74
2021/08/10 11:17:10;;;;;;;0.98;0.30;;;31.60;46.90;;;;;;4898637;29;20103;-73
2021/08/10 11:19:37;;;;;;;0.55;0.45;;;31.80;47.10;;;;;;4902427;29;20043;-74
2021/08/10 11:22:15;;;;;;;0.30;0.30;;;31.60;47.80;;;;;;4917445;29;20480;-74
2021/08/10 11:24:53;;;;;;;0.00;0.00;;;31.80;47.10;;;;;;4905201;29;20024;-74
2021/08/10 11:27:48;;;;;;;0.30;0.30;;;31.50;47.40;;;;;;4911116;29;20631;-74
2021/08/10 11:30:25;;;;;;;0.43;0.30;;;31.70;47.30;;;;;;4913516;29;20475;-74
2021/08/10 11:32:51;;;;;;;0.75;0.70;;;31.70;46.30;;;;;;4897884;29;20028;-74
2021/08/10 11:35:34;;;;;;;0.22;0.22;;;31.80;45.70;;;;;;4904547;29;20554;-74
2021/08/10 11:38:05;;;;;;;0.00;0.00;;;31.50;47.00;;;;;;4898278;29;20030;-74
2021/08/10 11:40:47;;;;;;;0.10;0.10;;;31.60;46.90;;;;;;4901531;29;20438;-74
2021/08/10 11:43:13;;;;;;;0.00;0.00;;;31.80;45.80;;;;;;4898811;29;20024;-72
2021/08/10 11:45:41;;;;;;;0.00;0.00;;;31.70;46.60;;;;;;4906474;29;20035;-74
2021/08/10 11:48:08;;;;;;;0.10;0.10;;;31.70;46.70;;;;;;4908724;29;20511;-74
2021/08/10 11:50:34;;;;;;;0.00;0.00;;;31.70;46.40;;;;;;4898588;29;20029;-74
2021/08/10 11:53:02;;;;;;;0.10;0.10;;;31.80;46.90;;;;;;4899004;29;20484;-74
2021/08/10 11:55:37;;;;;;;0.85;0.63;;;32.00;45.40;;;;;;4902854;29;20051;-74
2021/08/10 11:58:07;;;;;;;0.25;0.22;;;32.00;46.30;;;;;;4899731;29;20028;-74
2021/08/10 12:00:36;;;;;;;0.03;0.03;;;31.80;46.00;;;;;;4906931;29;20032;-74
2021/08/10 12:03:03;;;;;;;0.00;0.00;;;31.70;46.40;;;;;;4909379;29;20024;-74
2021/08/10 12:05:31;;;;;;;0.17;0.17;;;31.70;46.60;;;;;;4907679;29;20116;-74
2021/08/10 12:07:59;;;;;;;0.00;0.00;;;31.60;46.00;;;;;;4894374;29;20398;-74
2021/08/10 12:10:28;;;;;;;0.15;0.08;;;31.80;46.30;;;;;;4908174;29;20088;-74
2021/08/10 12:12:54;;;;;;;0.52;0.20;;;31.80;47.30;;;;;;4905017;29;20043;-74
2021/08/10 12:15:40;;;;;;;0.63;0.47;;;31.30;46.10;;;;;;4906925;29;20021;-74
2021/08/10 12:18:06;;;;;;;0.00;0.00;;;31.00;46.50;;;;;;4904172;29;20032;-74
2021/08/10 12:20:32;;;;;;;0.00;0.00;;;30.80;46.90;;;;;;4916011;29;20091;-75
2021/08/10 12:23:00;;;;;;;0.00;0.00;;;30.80;47.40;;;;;;4915050;29;20052;-74
2021/08/10 12:25:26;;;;;;;0.20;0.20;;;30.60;47.20;;;;;;4907422;29;20103;-74
2021/08/10 12:28:01;;;;;;;0.10;0.10;;;30.50;46.20;;;;;;4916038;29;20560;-74
2021/08/10 12:30:29;;;;;;;1.95;1.85;;;30.40;47.00;;;;;;4909896;29;20396;-74
2021/08/10 12:33:20;;;;;;;0.00;0.00;;;30.40;46.90;;;;;;4906590;29;20458;-74
2021/08/10 12:36:07;;;;;;;0.03;0.03;;;30.40;46.40;;;;;;4909148;29;20028;-74
2021/08/10 12:38:35;;;;;;;0.32;0.15;;;30.20;45.60;;;;;;4899839;29;20032;-74
2021/08/10 12:41:01;;;;;;;1.45;0.65;;;30.10;46.40;;;;;;4902243;29;20393;-74
2021/08/10 12:43:27;;;;;;;0.10;0.10;;;30.10;45.10;;;;;;4900885;29;20024;-74
2021/08/10 12:45:54;;;;;;;0.28;0.28;;;29.90;43.90;;;;;;4904232;29;20028;-74
2021/08/10 12:48:33;;;;;;;0.17;0.17;;;29.80;44.00;;;;;;4898222;29;20450;-74
2021/08/10 12:51:08;;;;;;;0.30;0.17;;;29.80;44.60;;;;;;4914928;29;20020;-74
2021/08/10 12:53:36;;;;;;;0.20;0.20;;;29.80;44.30;;;;;;4911421;29;20124;-74
2021/08/10 12:56:03;;;;;;;0.30;0.30;;;29.80;45.30;;;;;;4903888;29;20016;-74
2021/08/10 12:58:31;;;;;;;0.10;0.10;;;29.70;45.60;;;;;;4906060;29;20052;-75